sensor_id;sensor_type;location;lat;lon;timestamp;pressure;altitude;pressure_sealevel;temperature;humidity
2036;BME280;23642;42.658;23.350;2023-04-07T00:00:15;54134.31;;;-146.31;52.96
2036;BME280;23642;42.658;23.350;2023-04-07T00:02:43;54142.56;;;-146.31;53.25
2036;BME280;23642;42.658;23.350;2023-04-07T00:05:11;54128.13;;;-146.31;53.66
2036;BME280;23642;42.658;23.350;2023-04-07T00:07:39;54171.47;;;-146.31;53.37
2036;BME280;23642;42.658;23.350;2023-04-07T00:10:07;54165.28;;;-146.31;53.14
2036;BME280;23642;42.658;23.350;2023-04-07T00:12:35;54150.84;;;-146.31;52.96
2036;BME280;23642;42.658;23.350;2023-04-07T00:15:02;54171.47;;;-146.31;52.40
2036;BME280;23642;42.658;23.350;2023-04-07T00:17:28;54163.22;;;-146.31;53.10
2036;BME280;23642;42.658;23.350;2023-04-07T00:19:57;54183.88;;;-146.31;53.55
2036;BME280;23642;42.658;23.350;2023-04-07T00:22:24;54179.75;;;-146.31;52.77
2036;BME280;23642;42.658;23.350;2023-04-07T00:24:51;54179.75;;;-146.31;52.68
2036;BME280;23642;42.658;23.350;2023-04-07T00:27:17;54200.38;;;-146.31;52.66
2036;BME280;23642;42.658;23.350;2023-04-07T00:29:44;54202.44;;;-146.31;52.74
2036;BME280;23642;42.658;23.350;2023-04-07T00:32:14;54216.91;;;-146.31;53.38
2036;BME280;23642;42.658;23.350;2023-04-07T00:34:41;54190.06;;;-146.31;53.04
2036;BME280;23642;42.658;23.350;2023-04-07T00:37:09;54202.44;;;-146.31;53.01
2036;BME280;23642;42.658;23.350;2023-04-07T00:39:36;54188.00;;;-146.31;52.51
2036;BME280;23642;42.658;23.350;2023-04-07T00:42:03;54171.47;;;-146.31;52.40
2036;BME280;23642;42.658;23.350;2023-04-07T00:44:31;54221.03;;;-146.31;52.77
2036;BME280;23642;42.658;23.350;2023-04-07T00:46:58;54202.44;;;-146.31;52.56
2036;BME280;23642;42.658;23.350;2023-04-07T00:49:25;54185.94;;;-146.31;52.85
2036;BME280;23642;42.658;23.350;2023-04-07T00:51:53;54200.38;;;-146.31;52.26
2036;BME280;23642;42.658;23.350;2023-04-07T00:54:22;54208.63;;;-146.31;52.45
2036;BME280;23642;42.658;23.350;2023-04-07T00:56:49;54218.97;;;-146.31;52.76
2036;BME280;23642;42.658;23.350;2023-04-07T00:59:16;54231.34;;;-146.31;53.06
2036;BME280;23642;42.658;23.350;2023-04-07T01:01:45;54231.34;;;-146.31;53.17
2036;BME280;23642;42.658;23.350;2023-04-07T01:04:19;54216.91;;;-146.31;53.42
2036;BME280;23642;42.658;23.350;2023-04-07T01:06:49;54208.63;;;-146.31;52.74
2036;BME280;23642;42.658;23.350;2023-04-07T01:09:19;54202.44;;;-146.31;53.29
2036;BME280;23642;42.658;23.350;2023-04-07T01:11:56;54221.03;;;-146.31;52.78
2036;BME280;23642;42.658;23.350;2023-04-07T01:14:27;54237.53;;;-146.31;53.62
2036;BME280;23642;42.658;23.350;2023-04-07T01:16:58;54221.03;;;-146.31;53.81
2036;BME280;23642;42.658;23.350;2023-04-07T01:19:33;54221.03;;;-146.31;53.12
2036;BME280;23642;42.658;23.350;2023-04-07T01:22:05;54218.97;;;-146.31;53.38
2036;BME280;23642;42.658;23.350;2023-04-07T01:24:41;54208.63;;;-146.31;53.33
2036;BME280;23642;42.658;23.350;2023-04-07T01:27:20;54208.63;;;-146.31;52.13
2036;BME280;23642;42.658;23.350;2023-04-07T01:29:49;54196.25;;;-146.31;52.06
2036;BME280;23642;42.658;23.350;2023-04-07T01:32:18;54212.78;;;-146.31;52.61
2036;BME280;23642;42.658;23.350;2023-04-07T01:34:48;54208.63;;;-146.31;52.36
2036;BME280;23642;42.658;23.350;2023-04-07T01:37:16;54233.41;;;-146.31;52.04
2036;BME280;23642;42.658;23.350;2023-04-07T01:39:43;54235.47;;;-146.31;52.16
2036;BME280;23642;42.658;23.350;2023-04-07T01:42:11;54241.69;;;-146.31;52.27
2036;BME280;23642;42.658;23.350;2023-04-07T01:44:39;54223.09;;;-146.31;52.53
2036;BME280;23642;42.658;23.350;2023-04-07T01:47:08;54243.75;;;-146.31;51.94
2036;BME280;23642;42.658;23.350;2023-04-07T01:49:39;54216.91;;;-146.31;51.72
2036;BME280;23642;42.658;23.350;2023-04-07T01:52:07;54241.69;;;-146.31;51.26
2036;BME280;23642;42.658;23.350;2023-04-07T01:54:35;54245.81;;;-146.31;51.21
2036;BME280;23642;42.658;23.350;2023-04-07T01:57:03;54192.13;;;-146.31;52.89
2036;BME280;23642;42.658;23.350;2023-04-07T01:59:30;54051.72;;;-146.31;58.11
2036;BME280;23642;42.658;23.350;2023-04-07T02:01:57;53985.66;;;-146.31;61.06
2036;BME280;23642;42.658;23.350;2023-04-07T02:04:31;53954.69;;;-146.31;63.79
2036;BME280;23642;42.658;23.350;2023-04-07T02:07:05;53913.41;;;-146.31;65.01
2036;BME280;23642;42.658;23.350;2023-04-07T02:09:37;53880.38;;;-146.31;64.95
2036;BME280;23642;42.658;23.350;2023-04-07T02:12:08;53863.84;;;-146.31;65.92
2036;BME280;23642;42.658;23.350;2023-04-07T02:14:37;53865.91;;;-146.31;66.53
2036;BME280;23642;42.658;23.350;2023-04-07T02:17:05;53874.19;;;-146.31;66.30
2036;BME280;23642;42.658;23.350;2023-04-07T02:19:35;53791.59;;;-146.31;66.03
2036;BME280;23642;42.658;23.350;2023-04-07T02:22:02;53806.06;;;-146.31;65.63
2036;BME280;23642;42.658;23.350;2023-04-07T02:24:30;53779.22;;;-146.31;65.95
2036;BME280;23642;42.658;23.350;2023-04-07T02:26:57;53742.06;;;-146.31;66.79
2036;BME280;23642;42.658;23.350;2023-04-07T02:29:25;53731.72;;;-146.31;66.95
2036;BME280;23642;42.658;23.350;2023-04-07T02:31:52;53750.31;;;-146.31;67.34
2036;BME280;23642;42.658;23.350;2023-04-07T02:34:19;53713.16;;;-146.31;67.35
2036;BME280;23642;42.658;23.350;2023-04-07T02:36:47;53760.63;;;-146.31;67.45
2036;BME280;23642;42.658;23.350;2023-04-07T02:39:14;53744.13;;;-146.31;66.18
2036;BME280;23642;42.658;23.350;2023-04-07T02:41:42;53787.47;;;-146.31;64.93
2036;BME280;23642;42.658;23.350;2023-04-07T02:44:09;53787.47;;;-146.31;66.32
2036;BME280;23642;42.658;23.350;2023-04-07T02:46:36;53688.38;;;-146.31;66.17
2036;BME280;23642;42.658;23.350;2023-04-07T02:49:02;53678.06;;;-146.31;65.76
2036;BME280;23642;42.658;23.350;2023-04-07T02:51:29;53676.00;;;-146.31;66.05
2036;BME280;23642;42.658;23.350;2023-04-07T02:53:57;53647.09;;;-146.31;65.75
2036;BME280;23642;42.658;23.350;2023-04-07T02:56:24;53676.00;;;-146.31;65.86
2036;BME280;23642;42.658;23.350;2023-04-07T02:58:51;53680.13;;;-146.31;65.43
2036;BME280;23642;42.658;23.350;2023-04-07T03:01:18;53649.16;;;-146.31;66.45
2036;BME280;23642;42.658;23.350;2023-04-07T03:03:44;53659.47;;;-146.31;66.50
2036;BME280;23642;42.658;23.350;2023-04-07T03:06:13;53647.09;;;-146.31;67.17
2036;BME280;23642;42.658;23.350;2023-04-07T03:08:41;53663.59;;;-146.31;66.63
2036;BME280;23642;42.658;23.350;2023-04-07T03:11:11;53618.19;;;-146.31;65.82
2036;BME280;23642;42.658;23.350;2023-04-07T03:13:38;53642.97;;;-146.31;66.77
2036;BME280;23642;42.658;23.350;2023-04-07T03:16:05;53620.25;;;-146.31;67.55
2036;BME280;23642;42.658;23.350;2023-04-07T03:18:32;53564.53;;;-146.31;66.32
2036;BME280;23642;42.658;23.350;2023-04-07T03:20:59;53607.88;;;-146.31;65.95
2036;BME280;23642;42.658;23.350;2023-04-07T03:23:26;53585.16;;;-146.31;66.18
2036;BME280;23642;42.658;23.350;2023-04-07T03:25:54;53626.44;;;-146.31;66.44
2036;BME280;23642;42.658;23.350;2023-04-07T03:28:23;53733.78;;;-146.31;62.63
2036;BME280;23642;42.658;23.350;2023-04-07T03:30:50;53855.59;;;-146.31;59.31
2036;BME280;23642;42.658;23.350;2023-04-07T03:33:17;53931.97;;;-146.31;55.96
2036;BME280;23642;42.658;23.350;2023-04-07T03:35:44;53965.03;;;-146.31;55.01
2036;BME280;23642;42.658;23.350;2023-04-07T03:38:11;54014.56;;;-146.31;54.66
2036;BME280;23642;42.658;23.350;2023-04-07T03:40:38;54020.75;;;-146.31;54.50
2036;BME280;23642;42.658;23.350;2023-04-07T03:43:05;54051.72;;;-146.31;54.26
2036;BME280;23642;42.658;23.350;2023-04-07T03:45:38;54039.34;;;-146.31;53.99
2036;BME280;23642;42.658;23.350;2023-04-07T03:48:05;54055.84;;;-146.31;53.44
2036;BME280;23642;42.658;23.350;2023-04-07T03:50:35;54062.06;;;-146.31;53.23
2036;BME280;23642;42.658;23.350;2023-04-07T03:53:02;54051.72;;;-146.31;52.96
2036;BME280;23642;42.658;23.350;2023-04-07T03:55:29;54072.38;;;-146.31;52.98
2036;BME280;23642;42.658;23.350;2023-04-07T03:57:57;54093.03;;;-146.31;53.74
2036;BME280;23642;42.658;23.350;2023-04-07T04:00:24;54072.38;;;-146.31;53.02
2036;BME280;23642;42.658;23.350;2023-04-07T04:02:52;54086.81;;;-146.31;53.47
2036;BME280;23642;42.658;23.350;2023-04-07T04:05:20;54082.69;;;-146.31;53.14
2036;BME280;23642;42.658;23.350;2023-04-07T04:07:46;54084.75;;;-146.31;52.82
2036;BME280;23642;42.658;23.350;2023-04-07T04:10:15;54088.88;;;-146.31;53.00
2036;BME280;23642;42.658;23.350;2023-04-07T04:12:42;54084.75;;;-146.31;53.01
2036;BME280;23642;42.658;23.350;2023-04-07T04:15:09;54097.16;;;-146.31;53.53
2036;BME280;23642;42.658;23.350;2023-04-07T04:17:36;54101.28;;;-146.31;53.80
2036;BME280;23642;42.658;23.350;2023-04-07T04:20:05;54068.25;;;-146.31;53.17
2036;BME280;23642;42.658;23.350;2023-04-07T04:22:33;53915.47;;;-146.31;58.50
2036;BME280;23642;42.658;23.350;2023-04-07T04:25:00;53878.31;;;-146.31;60.88
2036;BME280;23642;42.658;23.350;2023-04-07T04:27:27;53861.78;;;-146.31;61.08
2036;BME280;23642;42.658;23.350;2023-04-07T04:29:54;53824.63;;;-146.31;62.30
2036;BME280;23642;42.658;23.350;2023-04-07T04:32:21;53837.03;;;-146.31;63.60
2036;BME280;23642;42.658;23.350;2023-04-07T04:34:48;53781.28;;;-146.31;63.75
2036;BME280;23642;42.658;23.350;2023-04-07T04:37:17;53791.59;;;-146.31;62.45
2036;BME280;23642;42.658;23.350;2023-04-07T04:39:44;53733.78;;;-146.31;63.60
2036;BME280;23642;42.658;23.350;2023-04-07T04:42:11;53709.03;;;-146.31;64.60
2036;BME280;23642;42.658;23.350;2023-04-07T04:44:38;53706.97;;;-146.31;64.73
2036;BME280;23642;42.658;23.350;2023-04-07T04:47:05;53754.44;;;-146.31;64.33
2036;BME280;23642;42.658;23.350;2023-04-07T04:49:37;53711.09;;;-146.31;64.30
2036;BME280;23642;42.658;23.350;2023-04-07T04:52:04;53721.41;;;-146.31;65.29
2036;BME280;23642;42.658;23.350;2023-04-07T04:54:36;53688.38;;;-146.31;65.32
2036;BME280;23642;42.658;23.350;2023-04-07T04:57:03;53719.34;;;-146.31;63.45
2036;BME280;23642;42.658;23.350;2023-04-07T04:59:32;53760.63;;;-146.31;63.23
2036;BME280;23642;42.658;23.350;2023-04-07T05:01:59;53723.47;;;-146.31;62.90
2036;BME280;23642;42.658;23.350;2023-04-07T05:04:26;53735.88;;;-146.31;62.09
2036;BME280;23642;42.658;23.350;2023-04-07T05:06:53;53721.41;;;-146.31;61.38
2036;BME280;23642;42.658;23.350;2023-04-07T05:09:20;53731.72;;;-146.31;61.96
2036;BME280;23642;42.658;23.350;2023-04-07T05:11:50;53719.34;;;-146.31;61.40
2036;BME280;23642;42.658;23.350;2023-04-07T05:14:17;53746.19;;;-146.31;60.43
2036;BME280;23642;42.658;23.350;2023-04-07T05:16:44;53737.94;;;-146.31;60.16
2036;BME280;23642;42.658;23.350;2023-04-07T05:19:12;53737.94;;;-146.31;60.47
2036;BME280;23642;42.658;23.350;2023-04-07T05:21:39;53740.00;;;-146.31;60.18
2036;BME280;23642;42.658;23.350;2023-04-07T05:24:06;53762.69;;;-146.31;59.02
2036;BME280;23642;42.658;23.350;2023-04-07T05:26:35;53754.44;;;-146.31;59.10
2036;BME280;23642;42.658;23.350;2023-04-07T05:29:03;53783.34;;;-146.31;58.21
2036;BME280;23642;42.658;23.350;2023-04-07T05:31:30;53793.66;;;-146.31;57.11
2036;BME280;23642;42.658;23.350;2023-04-07T05:33:59;53843.22;;;-146.31;56.46
2036;BME280;23642;42.658;23.350;2023-04-07T05:36:26;53723.47;;;-146.31;56.65
2036;BME280;23642;42.658;23.350;2023-04-07T05:38:53;53787.47;;;-146.31;56.08
2036;BME280;23642;42.658;23.350;2023-04-07T05:41:19;53808.13;;;-146.31;56.43
2036;BME280;23642;42.658;23.350;2023-04-07T05:43:46;53783.34;;;-146.31;56.61
2036;BME280;23642;42.658;23.350;2023-04-07T05:46:14;53760.63;;;-146.31;56.61
2036;BME280;23642;42.658;23.350;2023-04-07T05:48:41;53775.09;;;-146.31;57.05
2036;BME280;23642;42.658;23.350;2023-04-07T05:51:10;53700.75;;;-146.31;57.06
2036;BME280;23642;42.658;23.350;2023-04-07T05:53:37;53653.28;;;-146.31;56.26
2036;BME280;23642;42.658;23.350;2023-04-07T05:56:04;53698.69;;;-146.31;55.78
2036;BME280;23642;42.658;23.350;2023-04-07T05:58:33;53698.69;;;-146.31;55.53
2036;BME280;23642;42.658;23.350;2023-04-07T06:01:04;53661.53;;;-146.31;55.34
2036;BME280;23642;42.658;23.350;2023-04-07T06:03:35;53785.41;;;-146.31;54.33
2036;BME280;23642;42.658;23.350;2023-04-07T06:06:03;53766.81;;;-146.31;53.84
2036;BME280;23642;42.658;23.350;2023-04-07T06:08:30;53799.84;;;-146.31;54.56
2036;BME280;23642;42.658;23.350;2023-04-07T06:10:59;53872.13;;;-146.31;54.12
2036;BME280;23642;42.658;23.350;2023-04-07T06:13:28;53917.53;;;-146.31;54.10
2036;BME280;23642;42.658;23.350;2023-04-07T06:15:57;53841.16;;;-146.31;52.88
2036;BME280;23642;42.658;23.350;2023-04-07T06:18:24;53791.59;;;-146.31;52.36
2036;BME280;23642;42.658;23.350;2023-04-07T06:20:52;53808.13;;;-146.31;52.12
2036;BME280;23642;42.658;23.350;2023-04-07T06:23:19;53865.91;;;-146.31;52.73
2036;BME280;23642;42.658;23.350;2023-04-07T06:25:46;53884.50;;;-146.31;51.76
2036;BME280;23642;42.658;23.350;2023-04-07T06:28:19;53816.38;;;-146.31;52.33
2036;BME280;23642;42.658;23.350;2023-04-07T06:30:46;53721.41;;;-146.31;51.68
2036;BME280;23642;42.658;23.350;2023-04-07T06:33:13;53737.94;;;-146.31;52.13
2036;BME280;23642;42.658;23.350;2023-04-07T06:35:40;53818.44;;;-146.31;52.76
2036;BME280;23642;42.658;23.350;2023-04-07T06:38:08;53826.69;;;-146.31;53.06
2036;BME280;23642;42.658;23.350;2023-04-07T06:40:39;53814.31;;;-146.31;52.96
2036;BME280;23642;42.658;23.350;2023-04-07T06:43:06;53828.75;;;-146.31;52.06
2036;BME280;23642;42.658;23.350;2023-04-07T06:45:33;53752.38;;;-146.31;51.49
2036;BME280;23642;42.658;23.350;2023-04-07T06:48:00;53816.38;;;-146.31;51.50
2036;BME280;23642;42.658;23.350;2023-04-07T06:50:27;53816.38;;;-146.31;50.85
2036;BME280;23642;42.658;23.350;2023-04-07T06:52:54;53859.72;;;-146.31;50.05
2036;BME280;23642;42.658;23.350;2023-04-07T06:55:22;53818.44;;;-146.31;49.55
2036;BME280;23642;42.658;23.350;2023-04-07T06:57:49;53806.06;;;-146.31;48.71
2036;BME280;23642;42.658;23.350;2023-04-07T07:00:17;53880.38;;;-146.31;47.72
2036;BME280;23642;42.658;23.350;2023-04-07T07:02:44;53898.94;;;-146.31;50.00
2036;BME280;23642;42.658;23.350;2023-04-07T07:05:13;53886.56;;;-146.31;49.61
2036;BME280;23642;42.658;23.350;2023-04-07T07:07:39;53865.91;;;-146.31;50.28
2036;BME280;23642;42.658;23.350;2023-04-07T07:10:08;53812.25;;;-146.31;50.29
2036;BME280;23642;42.658;23.350;2023-04-07T07:12:36;53890.69;;;-146.31;48.31
2036;BME280;23642;42.658;23.350;2023-04-07T07:15:04;53940.25;;;-146.31;46.96
2036;BME280;23642;42.658;23.350;2023-04-07T07:17:31;54113.66;;;-146.31;45.10
2036;BME280;23642;42.658;23.350;2023-04-07T07:19:58;54064.13;;;-146.31;43.51
2036;BME280;23642;42.658;23.350;2023-04-07T07:22:29;54039.34;;;-146.31;42.97
2036;BME280;23642;42.658;23.350;2023-04-07T07:25:01;54198.31;;;-146.31;41.81
2036;BME280;23642;42.658;23.350;2023-04-07T07:27:30;54301.56;;;-146.31;42.00
2036;BME280;23642;42.658;23.350;2023-04-07T07:30:04;54359.38;;;-146.31;41.33
2036;BME280;23642;42.658;23.350;2023-04-07T07:35:21;54598.88;;;-146.31;41.65
2036;BME280;23642;42.658;23.350;2023-04-07T07:37:52;54415.13;;;-146.31;41.71
2036;BME280;23642;42.658;23.350;2023-04-07T07:40:19;54493.59;;;-146.31;41.13
2036;BME280;23642;42.658;23.350;2023-04-07T07:42:46;54522.50;;;-146.31;41.32
2036;BME280;23642;42.658;23.350;2023-04-07T07:45:15;54603.03;;;-146.31;41.19
2036;BME280;23642;42.658;23.350;2023-04-07T07:47:44;54654.66;;;-146.31;41.33
2036;BME280;23642;42.658;23.350;2023-04-07T07:50:11;54543.13;;;-146.31;40.79
2036;BME280;23642;42.658;23.350;2023-04-07T07:52:38;54811.59;;;-146.31;39.76
2036;BME280;23642;42.658;23.350;2023-04-07T07:55:05;54974.72;;;-146.31;40.63
2036;BME280;23642;42.658;23.350;2023-04-07T07:57:37;55057.34;;;-146.31;40.04
2036;BME280;23642;42.658;23.350;2023-04-07T08:00:05;55075.91;;;-146.31;40.41
2036;BME280;23642;42.658;23.350;2023-04-07T08:02:35;55034.63;;;-146.31;39.55
2036;BME280;23642;42.658;23.350;2023-04-07T08:05:03;54811.59;;;-146.31;38.80
2036;BME280;23642;42.658;23.350;2023-04-07T08:07:30;54869.41;;;-146.31;39.28
2036;BME280;23642;42.658;23.350;2023-04-07T08:09:57;54830.16;;;-146.31;39.41
2036;BME280;23642;42.658;23.350;2023-04-07T08:12:24;54956.16;;;-146.31;39.87
2036;BME280;23642;42.658;23.350;2023-04-07T08:14:51;54914.84;;;-146.31;40.09
2036;BME280;23642;42.658;23.350;2023-04-07T08:17:21;55009.84;;;-146.31;40.03
2036;BME280;23642;42.658;23.350;2023-04-07T08:19:50;55051.13;;;-146.31;39.92
2036;BME280;23642;42.658;23.350;2023-04-07T08:22:17;54956.16;;;-146.31;39.03
2036;BME280;23642;42.658;23.350;2023-04-07T08:24:46;55082.13;;;-146.31;39.57
2036;BME280;23642;42.658;23.350;2023-04-07T08:27:12;55005.72;;;-146.31;38.88
2036;BME280;23642;42.658;23.350;2023-04-07T08:29:39;55067.66;;;-146.31;38.82
2036;BME280;23642;42.658;23.350;2023-04-07T08:32:06;54956.16;;;-146.31;37.88
2036;BME280;23642;42.658;23.350;2023-04-07T08:34:33;55005.72;;;-146.31;38.34
2036;BME280;23642;42.658;23.350;2023-04-07T08:37:01;55003.63;;;-146.31;37.99
2036;BME280;23642;42.658;23.350;2023-04-07T08:39:27;55055.28;;;-146.31;39.72
2036;BME280;23642;42.658;23.350;2023-04-07T08:41:54;55067.66;;;-146.31;39.85
2036;BME280;23642;42.658;23.350;2023-04-07T08:44:23;55071.78;;;-146.31;38.99
2036;BME280;23642;42.658;23.350;2023-04-07T08:46:55;55024.28;;;-146.31;38.75
2036;BME280;23642;42.658;23.350;2023-04-07T08:49:23;55181.25;;;-146.31;38.99
2036;BME280;23642;42.658;23.350;2023-04-07T08:51:55;55237.00;;;-146.31;39.41
2036;BME280;23642;42.658;23.350;2023-04-07T08:54:27;55327.88;;;-146.31;39.16
2036;BME280;23642;42.658;23.350;2023-04-07T08:56:54;55065.59;;;-146.31;38.85
2036;BME280;23642;42.658;23.350;2023-04-07T08:59:30;55123.44;;;-146.31;39.63
2036;BME280;23642;42.658;23.350;2023-04-07T09:01:59;55166.78;;;-146.31;38.47
2036;BME280;23642;42.658;23.350;2023-04-07T09:04:29;55175.06;;;-146.31;38.27
2036;BME280;23642;42.658;23.350;2023-04-07T09:06:56;55298.97;;;-146.31;38.32
2036;BME280;23642;42.658;23.350;2023-04-07T09:09:24;55142.00;;;-146.31;37.88
2036;BME280;23642;42.658;23.350;2023-04-07T09:11:52;55057.34;;;-146.31;37.58
2036;BME280;23642;42.658;23.350;2023-04-07T09:14:23;55121.34;;;-146.31;37.37
2036;BME280;23642;42.658;23.350;2023-04-07T09:16:53;55179.19;;;-146.31;37.13
2036;BME280;23642;42.658;23.350;2023-04-07T09:19:20;55519.97;;;-146.31;36.79
2036;BME280;23642;42.658;23.350;2023-04-07T09:21:49;55433.22;;;-146.31;37.51
2036;BME280;23642;42.658;23.350;2023-04-07T09:24:24;55177.13;;;-146.31;37.03
2036;BME280;23642;42.658;23.350;2023-04-07T09:27:12;55181.25;;;-146.31;36.54
2036;BME280;23642;42.658;23.350;2023-04-07T09:29:40;55158.53;;;-146.31;36.30
2036;BME280;23642;42.658;23.350;2023-04-07T09:32:08;55181.25;;;-146.31;35.47
2036;BME280;23642;42.658;23.350;2023-04-07T09:34:38;55216.34;;;-146.31;36.11
2036;BME280;23642;42.658;23.350;2023-04-07T09:37:09;55255.59;;;-146.31;36.94
2036;BME280;23642;42.658;23.350;2023-04-07T09:39:48;55284.50;;;-146.31;37.09
2036;BME280;23642;42.658;23.350;2023-04-07T09:42:21;55268.00;;;-146.31;36.91
2036;BME280;23642;42.658;23.350;2023-04-07T09:44:47;55280.38;;;-146.31;36.11
2036;BME280;23642;42.658;23.350;2023-04-07T09:47:17;55241.16;;;-146.31;37.04
2036;BME280;23642;42.658;23.350;2023-04-07T09:49:56;55290.72;;;-146.31;38.21
2036;BME280;23642;42.658;23.350;2023-04-07T09:52:48;55315.50;;;-146.31;38.24
2036;BME280;23642;42.658;23.350;2023-04-07T09:55:16;55282.44;;;-146.31;38.57
2036;BME280;23642;42.658;23.350;2023-04-07T09:57:47;55301.03;;;-146.31;38.72
2036;BME280;23642;42.658;23.350;2023-04-07T10:00:16;55290.72;;;-146.31;39.41
2036;BME280;23642;42.658;23.350;2023-04-07T10:02:43;55257.66;;;-146.31;37.97
2036;BME280;23642;42.658;23.350;2023-04-07T10:05:10;55290.72;;;-146.31;38.27
2036;BME280;23642;42.658;23.350;2023-04-07T10:07:37;55303.09;;;-146.31;38.24
2036;BME280;23642;42.658;23.350;2023-04-07T10:10:09;55321.69;;;-146.31;38.15
2036;BME280;23642;42.658;23.350;2023-04-07T10:12:37;55360.94;;;-146.31;37.99
2036;BME280;23642;42.658;23.350;2023-04-07T10:15:08;55298.97;;;-146.31;36.93
2036;BME280;23642;42.658;23.350;2023-04-07T10:17:41;55294.84;;;-146.31;37.09
2036;BME280;23642;42.658;23.350;2023-04-07T10:20:16;55311.38;;;-146.31;37.20
2036;BME280;23642;42.658;23.350;2023-04-07T10:22:50;55292.78;;;-146.31;38.38
2036;BME280;23642;42.658;23.350;2023-04-07T10:25:20;55257.66;;;-146.31;37.90
2036;BME280;23642;42.658;23.350;2023-04-07T10:27:53;55257.66;;;-146.31;38.07
2036;BME280;23642;42.658;23.350;2023-04-07T10:30:25;55360.94;;;-146.31;39.70
2036;BME280;23642;42.658;23.350;2023-04-07T10:32:54;55303.09;;;-146.31;38.56
2036;BME280;23642;42.658;23.350;2023-04-07T10:35:22;55325.81;;;-146.31;38.13
2036;BME280;23642;42.658;23.350;2023-04-07T10:38:12;55286.59;;;-146.31;37.32
2036;BME280;23642;42.658;23.350;2023-04-07T10:40:40;55251.47;;;-146.31;37.25
2036;BME280;23642;42.658;23.350;2023-04-07T10:43:08;55191.56;;;-146.31;37.01
2036;BME280;23642;42.658;23.350;2023-04-07T10:45:54;55234.94;;;-146.31;36.27
2036;BME280;23642;42.658;23.350;2023-04-07T10:48:26;55224.63;;;-146.31;36.93
2036;BME280;23642;42.658;23.350;2023-04-07T10:51:16;55212.22;;;-146.31;37.24
2036;BME280;23642;42.658;23.350;2023-04-07T10:54:17;55189.50;;;-146.31;36.26
2036;BME280;23642;42.658;23.350;2023-04-07T10:57:07;55201.91;;;-146.31;35.92
2036;BME280;23642;42.658;23.350;2023-04-07T10:59:37;55237.00;;;-146.31;37.62
2036;BME280;23642;42.658;23.350;2023-04-07T11:02:30;55288.66;;;-146.31;39.15
2036;BME280;23642;42.658;23.350;2023-04-07T11:05:01;55323.75;;;-146.31;39.57
2036;BME280;23642;42.658;23.350;2023-04-07T11:07:48;55385.72;;;-146.31;40.39
2036;BME280;23642;42.658;23.350;2023-04-07T11:10:16;55408.44;;;-146.31;40.48
2036;BME280;23642;42.658;23.350;2023-04-07T11:12:57;55336.16;;;-146.31;39.61
2036;BME280;23642;42.658;23.350;2023-04-07T11:15:24;55288.66;;;-146.31;38.96
2036;BME280;23642;42.658;23.350;2023-04-07T11:18:13;55218.44;;;-146.31;37.98
2036;BME280;23642;42.658;23.350;2023-04-07T11:20:42;55239.06;;;-146.31;38.70
2036;BME280;23642;42.658;23.350;2023-04-07T11:23:10;55348.53;;;-146.31;40.32
2036;BME280;23642;42.658;23.350;2023-04-07T11:25:38;55292.78;;;-146.31;40.32
2036;BME280;23642;42.658;23.350;2023-04-07T11:28:09;55336.16;;;-146.31;40.08
2036;BME280;23642;42.658;23.350;2023-04-07T11:30:36;55327.88;;;-146.31;40.31
2036;BME280;23642;42.658;23.350;2023-04-07T11:33:05;55369.19;;;-146.31;40.56
2036;BME280;23642;42.658;23.350;2023-04-07T11:35:34;55307.22;;;-146.31;39.15
2036;BME280;23642;42.658;23.350;2023-04-07T11:38:03;55239.06;;;-146.31;38.79
2036;BME280;23642;42.658;23.350;2023-04-07T11:40:34;55278.31;;;-146.31;38.69
2036;BME280;23642;42.658;23.350;2023-04-07T11:43:02;55348.53;;;-146.31;40.18
2036;BME280;23642;42.658;23.350;2023-04-07T11:45:29;55298.97;;;-146.31;40.12
2036;BME280;23642;42.658;23.350;2023-04-07T11:48:32;55315.50;;;-146.31;40.78
2036;BME280;23642;42.658;23.350;2023-04-07T11:51:14;55336.16;;;-146.31;41.50
2036;BME280;23642;42.658;23.350;2023-04-07T11:53:44;55311.38;;;-146.31;41.88
2036;BME280;23642;42.658;23.350;2023-04-07T11:56:15;55352.66;;;-146.31;41.58
2036;BME280;23642;42.658;23.350;2023-04-07T11:58:46;55329.94;;;-146.31;40.96
2036;BME280;23642;42.658;23.350;2023-04-07T12:01:13;55340.28;;;-146.31;41.06
2036;BME280;23642;42.658;23.350;2023-04-07T12:04:01;55292.78;;;-146.31;40.99
2036;BME280;23642;42.658;23.350;2023-04-07T12:06:35;55294.84;;;-146.31;40.76
2036;BME280;23642;42.658;23.350;2023-04-07T12:09:04;55327.88;;;-146.31;41.39
2036;BME280;23642;42.658;23.350;2023-04-07T12:11:33;55344.41;;;-146.31;42.63
2036;BME280;23642;42.658;23.350;2023-04-07T12:14:07;55340.28;;;-146.31;42.51
2036;BME280;23642;42.658;23.350;2023-04-07T12:16:37;55265.94;;;-146.31;42.15
2036;BME280;23642;42.658;23.350;2023-04-07T12:19:08;55290.72;;;-146.31;41.14
2036;BME280;23642;42.658;23.350;2023-04-07T12:21:37;55336.16;;;-146.31;41.44
2036;BME280;23642;42.658;23.350;2023-04-07T12:24:04;55348.53;;;-146.31;42.17
2036;BME280;23642;42.658;23.350;2023-04-07T12:26:31;55327.88;;;-146.31;42.62
2036;BME280;23642;42.658;23.350;2023-04-07T12:28:57;55313.44;;;-146.31;42.50
2036;BME280;23642;42.658;23.350;2023-04-07T12:31:31;55356.81;;;-146.31;42.34
2036;BME280;23642;42.658;23.350;2023-04-07T12:33:58;55340.28;;;-146.31;42.49
2036;BME280;23642;42.658;23.350;2023-04-07T12:36:25;55332.03;;;-146.31;42.06
2036;BME280;23642;42.658;23.350;2023-04-07T12:38:54;55315.50;;;-146.31;42.18
2036;BME280;23642;42.658;23.350;2023-04-07T12:41:21;55282.44;;;-146.31;42.20
2036;BME280;23642;42.658;23.350;2023-04-07T12:43:48;55274.19;;;-146.31;42.06
2036;BME280;23642;42.658;23.350;2023-04-07T12:46:15;55298.97;;;-146.31;42.17
2036;BME280;23642;42.658;23.350;2023-04-07T12:48:43;55311.38;;;-146.31;42.51
2036;BME280;23642;42.658;23.350;2023-04-07T12:51:15;55344.41;;;-146.31;42.51
2036;BME280;23642;42.658;23.350;2023-04-07T12:53:42;55321.69;;;-146.31;41.71